Estación meteorológica de Montseny - Vallcàrquera (Vallès Oriental, Parc Natural del Montseny)

Consulta los datos en tiempo real de la estación meteorológica de Montseny - Vallcàrquera





Hora UTC 06:55
Temperatura 23.7 ºC
Humedad 50.3 %
Pluja 0.0 mm
Velocidad viento 1.8 km/h
Dirección viento ENE
Radiación solar 210.1 W/m²

Datos diarios 2026-09-06



Hora UTC (invierno +1h; verano +2h)
Temperatura (ºC) Humedad (%) Velocidad viento (km/h) Precipitación (mm) Radiación solar (W/m²)
Hora UTC Aire Humedad Vel. Dir. Vel. Max Dir. Intent. máx 5 min. Rad. Sol.
00:05 21.4 49.2 2.3 NE 2.3 ENE 0.0 0.0
00:10 21.4 49.4 4.2 ENE 7.4 ENE 0.0 0.0
00:15 21.6 48.8 3.8 NE 6.7 ENE 0.0 0.0
00:20 21.6 48.8 2.1 NE 4.6 ENE 0.0 0.0
00:25 21.7 48.0 2.3 NE 4.2 NNE 0.0 0.0
00:30 21.9 47.5 2.1 NE 4.9 ENE 0.0 0.0
00:35 21.6 48.5 2.5 NE 4.6 ENE 0.0 0.0
00:40 21.6 48.7 2.1 NNE 4.6 ENE 0.0 0.0
00:45 21.7 48.0 1.7 NNE 3.5 ENE 0.0 0.0
00:50 21.9 46.9 1.8 NNE 2.8 NE 0.0 0.0
00:55 21.9 47.4 2.3 NNE 3.9 NE 0.0 0.0
01:00 21.8 47.2 1.3 NNE 3.5 NE 0.0 0.0
01:05 21.8 47.9 0.6 NNE 1.8 N 0.0 0.0
01:10 21.6 48.3 1.5 NNE 2.5 NNE 0.0 0.0
01:15 21.7 48.2 2.3 NNE 3.5 NE 0.0 0.0
01:20 21.5 48.4 2.1 NE 3.9 ENE 0.0 0.0
01:25 21.3 48.7 2.4 NE 3.5 ENE 0.0 0.0
01:30 21.3 48.8 2.4 NE 3.9 ENE 0.0 0.0
01:35 21.2 48.8 1.6 NE 3.2 NE 0.0 0.0
01:40 21.2 48.6 2.2 NE 5.3 ENE 0.0 0.0
01:45 21.3 48.9 1.4 N 3.2 NE 0.0 0.0
01:50 21.3 48.7 2.4 NE 3.5 ENE 0.0 0.0
01:55 21.1 49.6 2.1 NE 4.2 ENE 0.0 0.0
02:00 20.9 49.8 2.3 NE 4.2 ENE 0.0 0.0
02:05 20.9 50.1 1.2 NNE 2.5 N 0.0 0.0
02:10 21.0 49.5 2.5 NE 3.9 ENE 0.0 0.0
02:15 21.1 49.5 1.9 NNE 2.8 N 0.0 0.0
02:20 21.0 50.5 1.8 NE 4.6 E 0.0 0.0
02:25 20.8 51.4 1.3 NE 3.5 ENE 0.0 0.0
02:30 20.8 50.9 2.5 NE 4.2 ENE 0.0 0.0
02:35 20.8 51.6 0.5 NNE 1.8 NNE 0.0 0.0
02:40 20.7 52.1 1.4 NE 3.2 NE 0.0 0.0
02:45 20.9 50.8 2.1 NNE 4.9 NE 0.0 0.0
02:50 21.0 51.8 1.3 NNE 2.5 N 0.0 0.0
02:55 20.6 53.0 2.3 ENE 3.9 ENE 0.0 0.0
03:00 20.5 53.4 2.3 NE 4.2 ENE 0.0 0.0
03:05 20.3 54.4 1.0 NNE 3.2 NE 0.0 0.0
03:10 20.7 52.4 1.8 NNE 3.2 NE 0.0 0.0
03:15 20.7 52.9 1.1 NE 2.5 N 0.0 0.0
03:20 20.5 53.2 1.6 NNE 3.2 NNE 0.0 0.0
03:25 20.6 53.0 1.5 NNE 3.9 NE 0.0 0.0
03:30 20.6 52.8 1.3 NNE 2.5 NNE 0.0 0.0
03:35 20.7 53.2 1.5 N 3.2 N 0.0 0.0
03:40 20.6 53.6 1.3 NE 4.2 ENE 0.0 0.0
03:45 20.5 53.8 1.7 NNE 2.8 NNE 0.0 0.0
03:50 20.6 53.6 1.6 NNE 3.5 ENE 0.0 0.0
03:55 20.5 54.0 1.9 ENE 3.9 ENE 0.0 0.0
04:00 20.4 54.1 1.5 NE 3.2 NE 0.0 0.0
04:05 20.2 55.4 1.1 NE 2.8 NNE 0.0 0.0
04:10 20.3 55.6 1.2 NNE 2.1 NNE 0.0 0.0
04:15 20.4 55.0 2.2 NE 4.6 NNE 0.0 0.0
04:20 20.5 54.9 1.8 NNE 3.5 NNE 0.0 0.0
04:25 20.3 55.3 2.4 NE 4.6 ENE 0.0 0.0
04:30 20.4 55.2 1.9 NNE 3.2 N 0.0 0.0
04:35 20.4 55.5 1.4 NE 3.2 ENE 0.0 0.0
04:40 20.2 56.2 1.8 NNE 3.9 NE 0.0 0.0
04:45 20.4 55.5 0.4 N 2.5 N 0.0 0.0
04:50 20.3 55.8 1.8 NNE 3.2 NNE 0.0 0.0
04:55 20.6 55.2 1.6 NE 4.2 ENE 0.0 0.0
05:00 20.3 55.8 2.5 NE 4.2 ENE 0.0 0.0
05:05 20.3 56.6 1.1 NNE 3.2 ENE 0.0 0.0
05:10 20.2 57.3 1.4 NE 2.5 NE 0.0 0.0
05:15 20.1 57.6 2.0 NNE 3.9 NE 0.0 0.2
05:20 20.1 57.9 2.0 NE 3.2 NE 0.0 1.0
05:25 20.1 57.8 1.9 NNE 3.5 NE 0.0 3.3
05:30 20.3 57.8 1.4 NNE 4.9 NE 0.0 5.6
05:35 20.1 58.4 2.1 NNE 4.2 ENE 0.0 9.3
05:40 20.2 58.6 1.7 NE 3.9 E 0.0 14.0
05:45 20.2 58.6 1.7 NNE 2.5 N 0.0 19.2
05:50 20.3 58.5 1.5 NNE 3.2 N 0.0 24.5
05:55 20.3 58.6 0.5 N 2.1 NNW 0.0 29.9
06:00 20.3 58.9 1.9 NNE 2.8 NE 0.0 35.8
06:05 20.5 58.0 1.1 NNE 2.5 N 0.0 42.2
06:10 20.7 57.0 1.6 N 2.8 N 0.0 48.4
06:15 21.0 55.8 0.4 N 2.1 NNW 0.0 54.0
06:20 21.1 56.5 1.0 NE 2.1 NE 0.0 58.9
06:25 21.1 57.2 2.1 NE 4.2 E 0.0 65.6
06:30 21.2 57.1 1.0 NNE 3.2 NNE 0.0 72.6
06:35 21.3 57.6 0.6 ENE 1.8 ENE 0.0 110.6
06:40 21.9 56.4 1.2 ENE 3.5 ENE 0.0 159.3
06:45 22.5 53.3 2.3 ENE 3.9 ENE 0.0 177.0
06:50 23.2 51.5 1.2 ENE 2.1 ENE 0.0 194.0
06:55 23.7 50.3 1.8 ENE 3.9 E 0.0 210.1
Máxima 23.7 58.9 4.2 ENE 7.4 ENE 0.0 210.1
Mínima 20 46.9
Total 0.0